Time;durP1;ratioP1;P1;durP2;ratioP2;P2;SDS_P1;SDS_P2;PMS_P1;PMS_P2;Temp;Humidity;BMP_temperature;BMP_pressure;BME280_temperature;BME280_humidity;BME280_pressure;Samples;Min_cycle;Max_cycle;Signal;HPM_P1;HPM_P2
2023/10/28 00:01:26;;;;;;;29.58;12.70;;;10.70;99.90;;;;;;6223312;23;20040;-79
2023/10/28 00:03:54;;;;;;;24.02;14.35;;;10.70;99.90;;;;;;6223544;23;20020;-79
2023/10/28 00:06:21;;;;;;;34.83;15.85;;;10.70;99.90;;;;;;6223677;23;20032;-79
2023/10/28 00:08:49;;;;;;;31.27;18.33;;;10.70;99.90;;;;;;6222791;23;20107;-77
2023/10/28 00:11:19;;;;;;;29.80;14.68;;;10.70;99.90;;;;;;6223255;23;20016;-78
2023/10/28 00:13:48;;;;;;;21.42;12.25;;;10.60;99.90;;;;;;6225020;23;20464;-80
2023/10/28 00:16:16;;;;;;;21.65;10.90;;;10.70;99.90;;;;;;6225751;23;20016;-77
2023/10/28 00:18:43;;;;;;;18.63;11.43;;;10.70;99.90;;;;;;6224315;23;20041;-77
2023/10/28 00:21:11;;;;;;;17.92;10.50;;;10.70;99.90;;;;;;6225129;23;20077;-79
2023/10/28 00:23:39;;;;;;;24.13;11.88;;;10.70;99.90;;;;;;6188893;23;20022;-79
2023/10/28 00:26:07;;;;;;;19.05;8.80;;;10.60;99.90;;;;;;6214465;23;20040;-77
2023/10/28 00:28:34;;;;;;;25.05;10.18;;;10.60;99.90;;;;;;6225122;23;20020;-80
2023/10/28 00:31:05;;;;;;;19.23;10.00;;;10.70;99.90;;;;;;6186919;23;20051;-77
2023/10/28 00:33:34;;;;;;;22.80;9.60;;;10.70;99.90;;;;;;6186865;23;20040;-79
2023/10/28 00:36:07;;;;;;;17.73;8.60;;;10.70;99.90;;;;;;6223253;23;20020;-79
2023/10/28 00:38:35;;;;;;;47.58;11.77;;;10.70;99.90;;;;;;6223376;23;20028;-79
2023/10/28 00:41:02;;;;;;;49.50;13.02;;;10.50;99.90;;;;;;6187294;23;20019;-78
2023/10/28 00:43:32;;;;;;;108.00;16.25;;;10.40;99.90;;;;;;6186959;23;20020;-78
2023/10/28 00:45:59;;;;;;;126.18;17.35;;;10.40;99.90;;;;;;6223697;23;20070;-80
2023/10/28 00:48:31;;;;;;;62.83;14.90;;;10.30;99.90;;;;;;6222610;23;20020;-77
2023/10/28 00:50:59;;;;;;;48.33;14.50;;;10.20;99.90;;;;;;6185305;23;20019;-79
2023/10/28 00:53:28;;;;;;;51.67;11.93;;;10.40;99.90;;;;;;6212617;23;20290;-78
2023/10/28 00:55:55;;;;;;;33.25;11.13;;;10.30;99.90;;;;;;6186082;23;20024;-78
2023/10/28 00:58:23;;;;;;;24.38;12.38;;;10.40;99.90;;;;;;6185169;23;20047;-77
2023/10/28 01:00:51;;;;;;;18.88;11.05;;;10.50;99.90;;;;;;6222770;23;20040;-78
2023/10/28 01:03:19;;;;;;;19.10;10.50;;;10.50;99.90;;;;;;6185572;23;20480;-78
2023/10/28 01:05:48;;;;;;;27.67;12.52;;;10.60;99.90;;;;;;6221928;23;20020;-79
2023/10/28 01:08:15;;;;;;;25.95;12.85;;;10.70;99.90;;;;;;6184991;23;20020;-77
2023/10/28 01:10:43;;;;;;;41.47;11.70;;;10.70;99.90;;;;;;6186429;23;20012;-78
2023/10/28 01:13:10;;;;;;;18.27;11.23;;;10.70;99.90;;;;;;6185685;23;20122;-78
2023/10/28 01:15:38;;;;;;;18.77;9.13;;;10.80;99.90;;;;;;6222870;23;20012;-79
2023/10/28 01:18:05;;;;;;;23.90;9.68;;;10.70;99.90;;;;;;6222268;23;20024;-79
2023/10/28 01:20:33;;;;;;;35.45;18.25;;;10.70;99.90;;;;;;6222538;23;20317;-81
2023/10/28 01:23:01;;;;;;;30.55;10.75;;;10.70;99.90;;;;;;6222773;23;20009;-79
2023/10/28 01:25:30;;;;;;;21.05;8.77;;;10.80;99.90;;;;;;6224122;23;20017;-77
2023/10/28 01:27:58;;;;;;;29.77;9.45;;;10.70;99.90;;;;;;6223417;23;20110;-78
2023/10/28 01:30:26;;;;;;;25.60;8.80;;;10.70;99.90;;;;;;6224918;23;20016;-78
2023/10/28 01:32:54;;;;;;;23.38;9.07;;;10.80;99.90;;;;;;6227093;23;20038;-80
2023/10/28 01:35:21;;;;;;;28.25;8.98;;;10.70;99.90;;;;;;6222204;23;20054;-80
2023/10/28 01:37:49;;;;;;;21.55;10.82;;;10.60;99.90;;;;;;6223790;23;20024;-77
2023/10/28 01:40:19;;;;;;;50.10;11.98;;;10.50;99.90;;;;;;6222470;23;20170;-77
2023/10/28 01:42:46;;;;;;;24.77;11.80;;;10.40;99.90;;;;;;6185739;23;20119;-78
2023/10/28 01:45:15;;;;;;;23.23;11.75;;;10.40;99.90;;;;;;6222050;23;20018;-79
2023/10/28 01:47:44;;;;;;;24.38;12.27;;;10.40;99.90;;;;;;6185103;23;20453;-81
2023/10/28 01:50:12;;;;;;;32.53;12.32;;;10.40;99.90;;;;;;6183984;23;20021;-78
2023/10/28 01:52:39;;;;;;;17.88;11.73;;;10.40;99.90;;;;;;6186022;23;20032;-79
2023/10/28 01:55:09;;;;;;;19.52;11.43;;;10.40;99.90;;;;;;6223144;23;20437;-78
2023/10/28 01:57:38;;;;;;;17.98;10.70;;;10.40;99.90;;;;;;6230777;23;20021;-78
2023/10/28 02:00:12;;;;;;;14.40;9.10;;;10.40;99.90;;;;;;6194694;23;20016;-79
2023/10/28 02:02:40;;;;;;;16.17;9.98;;;10.40;99.90;;;;;;6199927;23;20091;-76
2023/10/28 02:05:08;;;;;;;20.67;10.82;;;10.40;99.90;;;;;;6185685;23;20028;-79
2023/10/28 02:07:35;;;;;;;22.63;10.35;;;10.30;99.90;;;;;;6185172;23;20445;-77
2023/10/28 02:10:04;;;;;;;16.48;10.73;;;10.30;99.90;;;;;;6185143;23;20095;-80
2023/10/28 02:12:34;;;;;;;22.60;11.50;;;10.30;99.90;;;;;;6221832;23;20009;-77
2023/10/28 02:15:03;;;;;;;24.85;11.73;;;10.30;99.90;;;;;;6210905;23;20025;-79
2023/10/28 02:17:31;;;;;;;26.10;11.60;;;10.30;99.90;;;;;;6222097;23;20445;-78
2023/10/28 02:19:58;;;;;;;23.92;9.75;;;10.30;99.90;;;;;;6184998;23;20024;-80
2023/10/28 02:22:26;;;;;;;13.90;8.27;;;10.30;99.90;;;;;;6185840;23;20462;-79
2023/10/28 02:24:53;;;;;;;14.80;7.55;;;10.30;99.90;;;;;;6221699;23;20013;-78
2023/10/28 02:27:21;;;;;;;13.73;8.30;;;10.30;99.90;;;;;;6185306;23;20043;-81
2023/10/28 02:29:48;;;;;;;29.75;8.35;;;10.20;99.90;;;;;;6221698;23;20043;-79
2023/10/28 02:32:17;;;;;;;18.90;8.32;;;10.10;99.90;;;;;;6222122;23;20016;-78
2023/10/28 02:34:45;;;;;;;31.13;9.32;;;10.00;99.90;;;;;;6223712;23;20057;-79
2023/10/28 02:37:14;;;;;;;25.83;10.38;;;9.90;99.90;;;;;;6193812;23;20088;-78
2023/10/28 02:39:42;;;;;;;23.40;10.23;;;9.90;99.90;;;;;;6226007;23;20035;-78
2023/10/28 02:42:10;;;;;;;21.25;10.07;;;9.80;99.90;;;;;;6222409;23;20035;-79
2023/10/28 02:44:37;;;;;;;16.85;11.25;;;9.90;99.90;;;;;;6184889;23;20013;-78
2023/10/28 02:47:05;;;;;;;23.02;8.57;;;9.90;99.90;;;;;;6222477;23;20008;-79
2023/10/28 02:49:37;;;;;;;15.60;8.38;;;9.80;99.90;;;;;;6185221;23;20070;-78
2023/10/28 02:52:06;;;;;;;13.40;6.95;;;9.80;99.90;;;;;;6222283;23;20020;-77
2023/10/28 02:54:34;;;;;;;13.55;7.35;;;9.90;99.90;;;;;;6186353;23;20024;-79
2023/10/28 02:57:01;;;;;;;12.50;7.35;;;9.80;99.90;;;;;;6186570;23;20020;-78
2023/10/28 02:59:29;;;;;;;11.93;6.43;;;9.80;99.90;;;;;;6222635;23;20096;-79
2023/10/28 03:01:57;;;;;;;13.30;6.00;;;9.70;99.90;;;;;;6184916;23;20096;-79
2023/10/28 03:04:25;;;;;;;24.08;5.32;;;9.70;99.90;;;;;;6185005;23;20389;-79
2023/10/28 03:06:53;;;;;;;11.50;6.00;;;9.60;99.90;;;;;;6222912;23;20036;-78
2023/10/28 03:09:21;;;;;;;14.48;6.32;;;9.40;99.90;;;;;;6184631;23;20480;-78
2023/10/28 03:11:49;;;;;;;13.82;6.10;;;9.50;99.90;;;;;;6223508;23;20373;-78
2023/10/28 03:14:16;;;;;;;15.00;6.22;;;9.50;99.90;;;;;;6226012;23;20013;-80
2023/10/28 03:16:46;;;;;;;21.88;5.97;;;9.40;99.90;;;;;;6188871;23;20080;-78
2023/10/28 03:19:13;;;;;;;16.38;5.95;;;9.40;99.90;;;;;;6226935;23;20013;-81
2023/10/28 03:21:41;;;;;;;15.98;6.05;;;9.50;99.90;;;;;;6190172;23;20024;-79
2023/10/28 03:24:10;;;;;;;13.13;5.53;;;9.50;99.90;;;;;;6228277;23;20039;-80
2023/10/28 03:26:38;;;;;;;13.88;5.93;;;9.50;99.90;;;;;;6192678;23;20024;-77
2023/10/28 03:29:07;;;;;;;12.38;7.88;;;9.50;99.90;;;;;;6222812;23;20012;-80
2023/10/28 03:31:34;;;;;;;25.25;8.63;;;9.60;99.90;;;;;;6221396;23;20036;-79
2023/10/28 03:34:02;;;;;;;18.20;8.00;;;9.60;99.90;;;;;;6184209;23;20024;-76
2023/10/28 03:36:30;;;;;;;76.85;11.80;;;9.40;99.90;;;;;;6221391;23;20039;-78
2023/10/28 03:38:58;;;;;;;124.90;16.73;;;9.30;99.90;;;;;;6220592;23;20377;-78
2023/10/28 03:41:27;;;;;;;18.90;10.98;;;9.10;99.90;;;;;;6220247;23;20021;-79
2023/10/28 03:43:54;;;;;;;17.13;11.30;;;9.00;99.90;;;;;;6219453;23;20021;-78
2023/10/28 03:46:21;;;;;;;18.73;9.20;;;9.10;99.90;;;;;;6220847;23;20095;-78
2023/10/28 03:48:50;;;;;;;20.13;10.18;;;9.00;99.90;;;;;;6215947;23;20016;-78
2023/10/28 03:51:17;;;;;;;14.63;10.07;;;9.10;99.90;;;;;;6219034;23;20666;-78
2023/10/28 03:53:45;;;;;;;16.65;10.48;;;9.10;99.90;;;;;;6220450;23;20028;-80
2023/10/28 03:56:12;;;;;;;14.05;9.90;;;9.00;99.90;;;;;;6209676;23;20017;-79
2023/10/28 03:58:42;;;;;;;17.00;9.45;;;8.90;99.90;;;;;;6220944;23;20533;-78
2023/10/28 04:01:10;;;;;;;21.35;10.48;;;9.00;99.90;;;;;;6220907;23;20083;-79
2023/10/28 04:03:37;;;;;;;18.98;10.40;;;8.90;99.90;;;;;;6221121;23;20018;-78
2023/10/28 04:06:05;;;;;;;17.50;10.43;;;8.90;99.90;;;;;;6221173;23;20039;-80
2023/10/28 04:08:32;;;;;;;22.60;11.85;;;8.90;99.90;;;;;;6221760;23;20044;-80
2023/10/28 04:11:00;;;;;;;19.60;10.27;;;8.90;99.90;;;;;;6221575;23;20026;-80
2023/10/28 04:13:27;;;;;;;12.02;8.20;;;8.90;99.90;;;;;;6222138;23;20031;-79
2023/10/28 04:15:56;;;;;;;12.95;8.98;;;8.90;99.90;;;;;;6222931;23;20012;-80
2023/10/28 04:18:23;;;;;;;16.80;9.70;;;8.90;99.90;;;;;;6221477;23;20321;-79
2023/10/28 04:20:51;;;;;;;16.80;8.68;;;8.90;99.90;;;;;;6222656;23;20465;-79
2023/10/28 04:23:18;;;;;;;14.95;8.15;;;9.00;99.90;;;;;;6221799;23;20032;-77
2023/10/28 04:25:46;;;;;;;14.07;8.35;;;8.90;99.90;;;;;;6224150;23;20013;-78
2023/10/28 04:28:13;;;;;;;12.23;8.02;;;8.90;99.90;;;;;;6231132;23;20632;-79
2023/10/28 04:30:41;;;;;;;13.75;8.63;;;8.90;99.90;;;;;;6229327;23;20021;-78
2023/10/28 04:33:09;;;;;;;13.82;8.98;;;8.90;99.90;;;;;;6227906;23;20040;-79
2023/10/28 04:35:37;;;;;;;13.98;8.07;;;9.00;99.90;;;;;;6229005;23;20034;-80
2023/10/28 04:38:04;;;;;;;14.40;10.13;;;8.80;99.90;;;;;;6221847;23;20479;-79
2023/10/28 04:40:32;;;;;;;16.92;9.82;;;8.90;99.90;;;;;;6222178;23;20012;-79
2023/10/28 04:43:02;;;;;;;17.10;9.25;;;8.80;99.90;;;;;;6186230;23;20095;-76
2023/10/28 04:45:30;;;;;;;17.73;9.70;;;8.90;99.90;;;;;;6222613;23;20032;-77
2023/10/28 04:47:58;;;;;;;11.90;8.85;;;8.90;99.90;;;;;;6222667;23;20403;-79
2023/10/28 04:50:28;;;;;;;17.05;8.90;;;8.90;99.90;;;;;;6221657;23;20511;-79
2023/10/28 04:52:55;;;;;;;15.70;8.23;;;8.80;99.90;;;;;;6223350;23;20020;-78
2023/10/28 04:55:25;;;;;;;13.93;7.97;;;8.70;99.90;;;;;;6222278;23;20089;-78
2023/10/28 04:57:53;;;;;;;16.73;9.40;;;8.70;99.90;;;;;;6185718;23;20032;-78
2023/10/28 05:00:20;;;;;;;15.25;9.60;;;8.70;99.90;;;;;;6222284;23;20271;-79
2023/10/28 05:02:48;;;;;;;19.05;9.93;;;8.80;99.90;;;;;;6222940;23;20449;-77
2023/10/28 05:05:15;;;;;;;15.52;11.07;;;8.80;99.90;;;;;;6230079;23;20070;-78
2023/10/28 05:07:44;;;;;;;18.08;12.10;;;8.90;99.90;;;;;;6186383;23;20466;-80
2023/10/28 05:10:12;;;;;;;18.10;11.40;;;8.90;99.90;;;;;;6222578;23;20042;-78
2023/10/28 05:12:41;;;;;;;21.65;11.65;;;9.00;99.90;;;;;;6224939;23;20017;-78
2023/10/28 05:15:10;;;;;;;17.40;11.60;;;9.00;99.90;;;;;;6227467;23;20009;-80
2023/10/28 05:17:38;;;;;;;18.45;10.43;;;9.00;99.90;;;;;;6222764;23;20124;-79
2023/10/28 05:20:07;;;;;;;27.42;21.42;;;9.00;99.90;;;;;;6222980;23;20073;-81
2023/10/28 05:22:35;;;;;;;30.25;26.08;;;9.00;99.90;;;;;;6222251;23;20013;-80
2023/10/28 05:25:13;;;;;;;27.60;24.63;;;9.00;99.90;;;;;;6223072;23;20012;-89
2023/10/28 05:27:41;;;;;;;17.00;15.13;;;9.10;99.90;;;;;;6225071;23;20016;-78
2023/10/28 05:30:11;;;;;;;17.83;13.85;;;9.10;99.90;;;;;;6222271;23;20012;-79
2023/10/28 05:32:39;;;;;;;18.90;16.10;;;9.20;99.90;;;;;;6221570;23;20083;-79
2023/10/28 05:35:10;;;;;;;21.08;15.93;;;9.20;99.90;;;;;;6222548;23;20075;-78
2023/10/28 05:37:38;;;;;;;18.30;14.38;;;9.30;99.90;;;;;;6222134;23;20017;-81
2023/10/28 05:40:10;;;;;;;16.95;12.55;;;9.40;99.90;;;;;;6221957;23;20016;-78
2023/10/28 05:42:39;;;;;;;15.50;11.35;;;9.40;99.90;;;;;;6185634;23;20346;-79
2023/10/28 05:45:07;;;;;;;17.45;11.23;;;9.40;99.90;;;;;;6222336;23;20017;-80
2023/10/28 05:47:35;;;;;;;14.65;10.77;;;9.50;99.90;;;;;;6223359;23;20047;-78
2023/10/28 05:50:05;;;;;;;21.33;11.82;;;9.50;99.90;;;;;;6222299;23;20017;-78
2023/10/28 05:52:34;;;;;;;23.80;11.23;;;9.60;99.90;;;;;;6222476;23;20035;-78
2023/10/28 05:55:02;;;;;;;20.10;10.05;;;9.50;99.90;;;;;;6222157;23;20024;-80
2023/10/28 05:57:30;;;;;;;16.30;9.63;;;9.60;99.90;;;;;;6222474;23;20016;-79
2023/10/28 05:59:59;;;;;;;15.70;7.68;;;9.70;99.90;;;;;;6221942;23;20046;-80
2023/10/28 06:02:26;;;;;;;24.90;10.15;;;9.70;99.90;;;;;;6222322;23;20063;-77
2023/10/28 06:04:53;;;;;;;17.70;9.05;;;9.80;99.90;;;;;;6222008;23;20016;-78
2023/10/28 06:07:21;;;;;;;19.10;10.88;;;9.80;99.90;;;;;;6222193;23;20050;-77
2023/10/28 06:09:48;;;;;;;19.38;12.35;;;9.90;99.90;;;;;;6222169;23;20020;-79
2023/10/28 06:12:16;;;;;;;20.98;12.85;;;9.90;99.90;;;;;;6222421;23;20012;-77
2023/10/28 06:14:44;;;;;;;16.67;10.70;;;10.10;99.90;;;;;;6223457;23;20078;-78
2023/10/28 06:17:13;;;;;;;24.88;15.70;;;10.20;99.90;;;;;;6234735;23;20077;-78
2023/10/28 06:19:41;;;;;;;45.95;18.95;;;10.20;99.90;;;;;;6245060;23;20016;-80
2023/10/28 06:22:11;;;;;;;28.42;16.02;;;10.20;99.90;;;;;;6230059;23;20367;-81
2023/10/28 06:24:39;;;;;;;22.85;13.13;;;10.40;99.90;;;;;;6225216;23;20027;-78
2023/10/28 06:27:07;;;;;;;28.25;14.52;;;10.60;99.90;;;;;;6222905;23;20016;-79
2023/10/28 06:29:34;;;;;;;23.38;14.63;;;10.70;99.90;;;;;;6223413;23;20013;-80
2023/10/28 06:32:02;;;;;;;26.27;13.90;;;10.90;99.90;;;;;;6224064;23;20066;-78
2023/10/28 06:34:30;;;;;;;22.58;13.43;;;10.80;99.90;;;;;;6254467;23;20016;-80
2023/10/28 06:36:58;;;;;;;83.07;21.05;;;10.90;99.90;;;;;;6263037;23;20008;-79
2023/10/28 06:39:26;;;;;;;28.25;14.52;;;11.00;99.90;;;;;;6268087;23;20077;-80
2023/10/28 06:41:53;;;;;;;29.05;14.50;;;11.10;99.90;;;;;;6265541;23;20012;-80
2023/10/28 06:44:25;;;;;;;34.35;15.23;;;11.20;99.90;;;;;;6215911;23;20023;-79
2023/10/28 06:46:52;;;;;;;20.60;12.35;;;11.30;99.90;;;;;;6253074;23;20417;-81
2023/10/28 06:49:20;;;;;;;27.77;14.80;;;11.30;99.90;;;;;;6252119;23;20020;-80
2023/10/28 06:51:50;;;;;;;21.20;10.43;;;11.30;99.90;;;;;;6252901;23;20171;-77
2023/10/28 06:54:18;;;;;;;21.80;11.27;;;11.30;99.90;;;;;;6253554;23;20020;-79
2023/10/28 06:56:46;;;;;;;22.38;12.80;;;11.30;99.90;;;;;;6253273;23;20019;-81
2023/10/28 06:59:13;;;;;;;17.90;9.73;;;11.40;99.90;;;;;;6252285;23;20020;-81
2023/10/28 07:01:58;;;;;;;25.50;12.20;;;11.50;99.90;;;;;;6254902;23;20039;-85
2023/10/28 07:04:27;;;;;;;24.50;13.00;;;11.80;99.90;;;;;;6253794;23;20012;-78
2023/10/28 07:06:56;;;;;;;28.15;12.25;;;12.00;99.90;;;;;;6221611;23;20091;-78
2023/10/28 07:09:23;;;;;;;26.75;13.82;;;12.10;99.90;;;;;;6252386;23;20111;-79
2023/10/28 07:11:53;;;;;;;33.15;24.55;;;12.30;99.90;;;;;;6251364;23;20020;-81
2023/10/28 07:14:20;;;;;;;28.40;24.13;;;12.50;99.90;;;;;;6252221;23;20024;-82
2023/10/28 07:16:50;;;;;;;24.65;20.15;;;12.80;99.90;;;;;;6222494;23;20039;-81
2023/10/28 08:52:51;;;;;;;19.88;13.45;;;18.40;99.90;;;;;;6233879;23;20155;-85
2023/10/28 08:55:20;;;;;;;21.98;11.43;;;18.80;99.90;;;;;;6255290;23;20118;-84
2023/10/28 08:57:47;;;;;;;20.60;11.10;;;19.00;1.00;;;;;;6253829;23;20024;-84
2023/10/28 09:00:16;;;;;;;17.02;10.18;;;19.10;1.00;;;;;;6256325;22;20095;-85
2023/10/28 09:02:46;;;;;;;25.13;12.82;;;19.30;1.00;;;;;;6287422;22;20057;-82
2023/10/28 09:05:14;;;;;;;21.58;9.77;;;19.50;99.90;;;;;;6290256;22;20008;-86
2023/10/28 09:07:48;;;;;;;15.45;9.15;;;19.50;1.00;;;;;;6290242;22;20012;-88
2023/10/28 09:10:18;;;;;;;15.68;8.80;;;19.60;1.00;;;;;;6288192;22;20447;-84
2023/10/28 09:12:46;;;;;;;15.90;8.23;;;19.60;99.90;;;;;;6289886;22;20027;-82
2023/10/28 09:15:13;;;;;;;20.35;10.15;;;19.60;1.00;;;;;;6306611;22;20060;-79
2023/10/28 09:17:41;;;;;;;18.05;8.90;;;19.60;1.00;;;;;;6268955;22;20016;-82
2023/10/28 09:20:11;;;;;;;33.15;20.15;;;19.60;1.00;;;;;;6310551;22;20023;-83
2023/10/28 09:22:40;;;;;;;17.63;10.23;;;19.70;99.90;;;;;;6311663;22;20012;-85
2023/10/28 09:25:10;;;;;;;19.08;9.95;;;19.80;99.90;;;;;;6309055;22;20004;-85
2023/10/28 09:27:38;;;;;;;13.30;6.55;;;19.80;99.90;;;;;;6256485;22;20011;-84
2023/10/28 09:30:07;;;;;;;12.88;6.10;;;19.70;99.90;;;;;;6286868;22;20022;-84
2023/10/28 09:32:37;;;;;;;16.33;7.50;;;19.80;99.90;;;;;;6250879;22;20086;-87
2023/10/28 09:35:14;;;;;;;13.18;5.93;;;19.90;1.00;;;;;;6254973;22;20316;-89
2023/10/28 09:37:42;;;;;;;10.98;4.75;;;19.80;99.90;;;;;;6259941;22;20026;-87
2023/10/28 09:40:15;;;;;;;12.68;7.25;;;19.90;1.00;;;;;;6292741;22;20023;-86
2023/10/28 09:42:44;;;;;;;17.48;9.05;;;19.90;1.00;;;;;;6256871;22;20024;-86
2023/10/28 09:45:13;;;;;;;21.73;12.20;;;19.70;1.00;;;;;;6257097;22;20038;-86
2023/10/28 09:47:50;;;;;;;15.90;6.28;;;20.00;99.90;;;;;;6291865;22;20015;-86
2023/10/28 09:50:22;;;;;;;19.48;9.00;;;20.30;1.00;;;;;;6250671;22;20043;-86
2023/10/28 09:52:58;;;;;;;18.80;8.93;;;20.30;1.00;;;;;;6260726;23;20046;-86
2023/10/28 09:55:28;;;;;;;21.15;9.63;;;20.40;1.00;;;;;;6223147;23;20022;-86
2023/10/28 09:58:07;;;;;;;12.13;6.47;;;20.40;1.00;;;;;;6221955;23;20491;-87
2023/10/28 10:00:37;;;;;;;13.80;8.25;;;20.60;99.90;;;;;;6259628;23;20039;-85
2023/10/28 10:03:22;;;;;;;19.15;11.85;;;20.80;1.00;;;;;;6202903;23;20016;-85
2023/10/28 10:05:53;;;;;;;16.42;7.57;;;21.10;1.00;;;;;;6255755;23;20032;-85
2023/10/28 10:08:22;;;;;;;13.23;6.70;;;21.40;1.00;;;;;;6218032;23;20016;-85
2023/10/28 10:10:53;;;;;;;12.93;6.78;;;21.40;99.90;;;;;;6219643;23;20027;-84
2023/10/28 10:13:23;;;;;;;16.02;8.10;;;21.30;1.00;;;;;;6256019;23;20040;-83
2023/10/28 10:15:56;;;;;;;17.05;10.30;;;21.10;1.00;;;;;;6218197;23;20659;-83
2023/10/28 10:18:32;;;;;;;18.70;10.27;;;21.10;1.00;;;;;;6253306;23;20016;-85
2023/10/28 10:21:07;;;;;;;37.20;13.18;;;21.10;99.90;;;;;;6254028;23;20070;-86
2023/10/28 10:23:44;;;;;;;15.10;10.13;;;21.20;99.90;;;;;;6253827;23;20020;-84
2023/10/28 10:26:30;;;;;;;17.17;10.25;;;21.10;1.00;;;;;;6255281;23;20051;-85
2023/10/28 10:28:59;;;;;;;18.38;8.65;;;21.00;99.90;;;;;;6216348;23;20031;-83
2023/10/28 10:31:31;;;;;;;15.88;8.52;;;20.80;99.90;;;;;;6217669;23;20020;-85
2023/10/28 10:34:07;;;;;;;16.85;9.52;;;20.50;99.90;;;;;;6253296;23;20016;-83
2023/10/28 10:36:40;;;;;;;17.75;9.48;;;20.20;99.90;;;;;;6253845;23;20020;-81
2023/10/28 10:39:18;;;;;;;17.33;9.02;;;20.00;1.00;;;;;;6255262;23;20031;-88
2023/10/28 10:41:51;;;;;;;16.38;8.50;;;19.90;1.00;;;;;;6219393;23;20106;-86
2023/10/28 10:44:26;;;;;;;17.33;9.65;;;19.90;1.00;;;;;;6219392;23;20016;-86
2023/10/28 10:46:58;;;;;;;;;;;19.90;1.00;;;;;;6259181;23;20012;-86
2023/10/28 10:49:26;;;;;;;23.67;10.80;;;19.90;1.00;;;;;;6220677;23;19920;-88
2023/10/28 10:51:54;;;;;;;19.30;9.73;;;19.80;33.30;;;;;;6239194;22;20020;-86
2023/10/28 10:54:28;;;;;;;15.93;9.23;;;19.80;1.00;;;;;;6251428;22;20016;-85
2023/10/28 10:56:58;;;;;;;17.98;10.75;;;19.80;99.90;;;;;;6253794;22;20029;-86
2023/10/28 10:59:32;;;;;;;17.08;9.20;;;19.80;1.00;;;;;;6268383;22;20118;-85
2023/10/28 11:02:02;;;;;;;14.95;8.27;;;19.90;1.00;;;;;;6266421;22;20015;-88
2023/10/28 11:04:30;;;;;;;13.50;7.93;;;19.90;1.00;;;;;;6297838;22;20035;-87
2023/10/28 11:06:58;;;;;;;14.25;8.93;;;19.90;1.00;;;;;;6309024;22;20038;-87
2023/10/28 11:09:26;;;;;;;12.43;6.97;;;20.10;1.00;;;;;;6270031;22;20491;-86
2023/10/28 11:11:59;;;;;;;13.35;5.88;;;20.00;99.90;;;;;;6296280;22;20007;-86
2023/10/28 11:14:26;;;;;;;12.70;5.32;;;20.00;1.00;;;;;;6256556;22;20024;-86
2023/10/28 11:16:54;;;;;;;12.88;6.03;;;20.10;1.00;;;;;;6254561;22;20023;-85
2023/10/28 11:19:21;;;;;;;8.05;3.35;;;20.10;99.90;;;;;;6227627;22;20015;-86
2023/10/28 11:21:49;;;;;;;11.77;3.53;;;20.00;99.90;;;;;;6253001;22;20050;-85
2023/10/28 11:24:24;;;;;;;6.65;3.35;;;20.00;1.00;;;;;;6294431;22;20365;-86
2023/10/28 11:26:52;;;;;;;12.77;4.03;;;20.00;99.90;;;;;;6265111;22;20077;-86
2023/10/28 11:29:25;;;;;;;8.18;3.05;;;19.90;1.00;;;;;;6290732;22;20383;-85
2023/10/28 11:31:53;;;;;;;10.48;3.15;;;20.00;1.00;;;;;;6294976;22;20218;-86
2023/10/28 11:34:22;;;;;;;8.23;2.78;;;20.00;1.00;;;;;;6255518;22;20023;-83
2023/10/28 11:39:50;;;;;;;7.05;2.72;;;20.10;1.00;;;;;;6290074;22;20030;-85
2023/10/28 11:42:20;;;;;;;6.38;2.90;;;20.10;1.00;;;;;;6290925;22;20031;-86
2023/10/28 11:44:55;;;;;;;7.40;2.78;;;20.00;1.00;;;;;;6286262;22;20015;-85
2023/10/28 11:47:32;;;;;;;7.88;2.58;;;20.10;1.00;;;;;;6226342;22;20114;-83
2023/10/28 11:49:59;;;;;;;7.82;2.65;;;20.20;99.90;;;;;;6287010;22;20030;-86
2023/10/28 11:52:30;;;;;;;11.13;3.70;;;20.40;99.90;;;;;;6251221;22;20031;-84
2023/10/28 11:54:59;;;;;;;7.40;2.83;;;20.40;99.90;;;;;;6287441;22;20063;-87
2023/10/28 11:57:27;;;;;;;12.45;3.63;;;20.40;1.00;;;;;;6262431;22;20016;-86
2023/10/28 11:59:56;;;;;;;8.77;3.30;;;20.50;99.90;;;;;;6287090;22;20090;-86
2023/10/28 12:02:24;;;;;;;10.40;3.15;;;20.60;99.90;;;;;;6248998;22;20026;-86
2023/10/28 12:04:52;;;;;;;8.65;3.53;;;20.70;99.90;;;;;;6285352;22;20112;-86
2023/10/28 12:07:20;;;;;;;9.18;3.47;;;20.80;1.00;;;;;;6249920;22;20155;-87
2023/10/28 12:09:51;;;;;;;9.30;4.25;;;21.00;1.00;;;;;;6249971;22;20020;-86
2023/10/28 12:12:19;;;;;;;8.48;3.20;;;21.30;1.00;;;;;;6253284;22;20023;-87
2023/10/28 12:14:48;;;;;;;9.48;3.90;;;21.60;1.00;;;;;;6254678;22;20011;-86
2023/10/28 12:17:22;;;;;;;22.38;4.90;;;21.80;1.00;;;;;;6257949;22;20042;-89
2023/10/28 12:19:50;;;;;;;8.30;3.88;;;21.90;1.00;;;;;;6310660;22;20076;-87
2023/10/28 12:22:18;;;;;;;16.95;6.53;;;21.80;1.00;;;;;;6272157;22;20000;-87
2023/10/28 12:24:45;;;;;;;12.40;5.80;;;21.80;1.00;;;;;;6311209;22;20000;-87
2023/10/28 12:27:13;;;;;;;9.15;3.75;;;21.70;1.00;;;;;;6303140;22;20073;-87
2023/10/28 12:29:45;;;;;;;10.52;3.65;;;21.80;1.00;;;;;;6300894;22;20011;-86
2023/10/28 12:32:14;;;;;;;11.18;3.13;;;21.70;1.00;;;;;;6299497;22;20034;-85
2023/10/28 12:34:43;;;;;;;8.82;3.67;;;21.60;1.00;;;;;;6259077;22;20022;-85
2023/10/28 12:37:11;;;;;;;18.75;5.18;;;21.50;1.00;;;;;;6312162;22;20020;-87
2023/10/28 12:39:38;;;;;;;15.50;4.68;;;21.40;1.00;;;;;;6312259;22;20012;-86
2023/10/28 12:42:06;;;;;;;11.95;4.05;;;21.30;1.00;;;;;;6311851;22;20055;-87
2023/10/28 12:44:34;;;;;;;11.73;4.30;;;21.10;1.00;;;;;;6236719;22;20543;-87
2023/10/28 12:47:02;;;;;;;17.00;4.75;;;21.00;13.70;;;;;;6257142;22;20095;-85
2023/10/28 12:49:29;;;;;;;10.95;4.82;;;21.00;1.00;;;;;;6310779;22;19996;-87
2023/10/28 12:51:59;;;;;;;14.43;4.70;;;21.00;1.00;;;;;;6311789;22;20068;-84
2023/10/28 12:54:27;;;;;;;15.85;7.07;;;21.00;1.00;;;;;;6311931;22;20008;-87
2023/10/28 12:56:55;;;;;;;16.33;7.57;;;20.90;65.60;;;;;;6284537;22;20024;-87
2023/10/28 12:59:24;;;;;;;16.92;8.07;;;20.80;51.90;;;;;;6244076;22;20086;-87
2023/10/28 13:01:52;;;;;;;11.77;6.25;;;20.70;48.50;;;;;;6249724;22;19996;-87
2023/10/28 13:04:22;;;;;;;11.82;6.00;;;20.70;54.00;;;;;;6246458;22;20005;-87
2023/10/28 13:06:51;;;;;;;13.20;3.97;;;20.70;54.80;;;;;;6247164;22;20044;-86
2023/10/28 13:09:23;;;;;;;13.02;4.25;;;20.80;64.20;;;;;;6281852;22;19997;-87
2023/10/28 13:11:51;;;;;;;10.15;3.75;;;21.00;51.60;;;;;;6219056;22;20016;-88
2023/10/28 13:14:27;;;;;;;8.82;4.13;;;21.30;38.90;;;;;;6216653;23;20004;-87
2023/10/28 13:16:58;;;;;;;9.95;4.18;;;21.40;41.70;;;;;;6215965;22;20016;-87
2023/10/28 13:19:31;;;;;;;10.30;4.28;;;21.40;1.00;;;;;;6215347;22;20024;-87
2023/10/28 13:22:24;;;;;;;14.55;6.25;;;21.50;66.00;;;;;;6206845;23;20137;-86
2023/10/28 13:24:53;;;;;;;10.40;4.85;;;21.50;66.10;;;;;;6238573;23;20012;-88
2023/10/28 13:27:24;;;;;;;12.60;6.18;;;21.50;60.30;;;;;;6198021;23;20024;-86
2023/10/28 13:29:52;;;;;;;16.13;7.13;;;21.40;65.60;;;;;;6198030;23;20088;-86
2023/10/28 13:32:20;;;;;;;15.80;6.35;;;21.40;89.10;;;;;;6201667;23;20080;-86
2023/10/28 13:34:48;;;;;;;12.02;5.32;;;21.30;62.50;;;;;;6239569;23;20016;-86
2023/10/28 13:37:20;;;;;;;13.10;4.15;;;21.20;40.30;;;;;;6207591;23;20048;-87
2023/10/28 13:39:49;;;;;;;12.35;6.40;;;21.30;53.20;;;;;;6210138;23;20289;-87
2023/10/28 13:42:20;;;;;;;12.98;5.15;;;21.20;72.60;;;;;;6209840;23;20013;-86
2023/10/28 13:44:47;;;;;;;20.95;13.70;;;21.10;60.20;;;;;;6212416;23;20472;-88
2023/10/28 13:47:16;;;;;;;15.25;7.82;;;20.90;15.30;;;;;;6195119;23;20040;-86
2023/10/28 13:49:43;;;;;;;13.20;7.30;;;20.90;26.50;;;;;;6206199;23;20023;-86
2023/10/28 13:52:11;;;;;;;17.75;7.72;;;20.80;81.10;;;;;;6231312;23;20051;-87
2023/10/28 13:54:38;;;;;;;14.45;7.25;;;20.80;82.90;;;;;;6232551;23;20017;-88
2023/10/28 13:57:06;;;;;;;20.80;8.02;;;20.80;95.30;;;;;;6231013;23;20023;-85
2023/10/28 13:59:36;;;;;;;12.15;6.25;;;20.80;96.20;;;;;;6193642;23;20017;-86
2023/10/28 14:02:04;;;;;;;16.60;8.25;;;20.90;94.00;;;;;;6194537;23;20029;-84
2023/10/28 14:04:33;;;;;;;15.15;8.40;;;20.90;96.00;;;;;;6215364;23;20091;-87
2023/10/28 14:07:02;;;;;;;13.77;6.57;;;20.90;96.70;;;;;;6229510;23;20445;-86
2023/10/28 14:09:29;;;;;;;21.42;6.72;;;20.80;97.10;;;;;;6228497;23;20016;-88
2023/10/28 14:11:57;;;;;;;8.77;5.13;;;20.70;98.20;;;;;;6231062;23;20056;-88
2023/10/28 14:14:25;;;;;;;11.80;6.03;;;20.70;98.10;;;;;;6240712;23;20016;-87
2023/10/28 14:16:55;;;;;;;23.40;11.93;;;20.60;99.90;;;;;;6244610;23;20008;-85
2023/10/28 14:19:25;;;;;;;30.20;16.83;;;20.70;99.90;;;;;;6222209;23;20021;-87
2023/10/28 14:21:53;;;;;;;29.55;15.32;;;20.80;99.90;;;;;;6221330;23;20464;-87
2023/10/28 14:24:29;;;;;;;31.00;16.50;;;20.90;99.90;;;;;;6223085;23;20017;-87